Time;durP1;ratioP1;P1;durP2;ratioP2;P2;SDS_P1;SDS_P2;PMS_P1;PMS_P2;Temp;Humidity;BMP_temperature;BMP_pressure;BME280_temperature;BME280_humidity;BME280_pressure;Samples;Min_cycle;Max_cycle;Signal;HPM_P1;HPM_P2
2022/12/01 00:02:03;;;;;;;65.57;30.33;;;4.40;99.90;;;;;;5061238;28;20029;-70
2022/12/01 00:04:29;;;;;;;67.45;29.55;;;4.40;99.90;;;;;;5063089;28;20031;-70
2022/12/01 00:06:54;;;;;;;72.57;30.05;;;4.30;99.90;;;;;;5065214;28;20025;-71
2022/12/01 00:12:04;;;;;;;68.38;29.83;;;4.30;99.90;;;;;;5069586;28;20035;-70
2022/12/01 00:14:30;;;;;;;74.90;32.75;;;4.30;99.90;;;;;;5070783;28;20480;-69
2022/12/01 00:16:56;;;;;;;83.35;34.63;;;4.20;99.90;;;;;;5069359;28;20388;-70
2022/12/01 00:19:25;;;;;;;74.38;31.92;;;4.20;99.90;;;;;;5069679;28;20025;-70
2022/12/01 00:21:51;;;;;;;78.80;33.47;;;4.20;99.90;;;;;;5069463;28;20059;-70
2022/12/01 00:24:17;;;;;;;80.13;34.10;;;4.20;99.90;;;;;;5069665;28;20074;-70
2022/12/01 00:26:42;;;;;;;78.85;34.20;;;4.30;99.90;;;;;;5070560;28;20077;-70
2022/12/01 00:29:08;;;;;;;82.60;33.75;;;4.30;99.90;;;;;;5064013;28;20497;-70
2022/12/01 00:31:34;;;;;;;78.63;33.75;;;4.20;99.90;;;;;;5062078;28;20032;-69
2022/12/01 00:34:00;;;;;;;82.47;34.05;;;4.20;99.90;;;;;;5068815;28;20025;-69
2022/12/01 00:36:25;;;;;;;88.50;36.20;;;4.20;99.90;;;;;;5063605;28;20028;-69
2022/12/01 00:38:53;;;;;;;85.65;35.65;;;4.20;99.90;;;;;;5064181;28;20031;-71
2022/12/01 00:41:19;;;;;;;89.88;35.92;;;4.20;99.90;;;;;;5066981;28;20032;-69
2022/12/01 00:43:45;;;;;;;95.68;36.78;;;4.20;99.90;;;;;;5067947;28;20162;-69
2022/12/01 00:46:11;;;;;;;92.72;37.85;;;4.20;99.90;;;;;;5068743;28;20452;-69
2022/12/01 00:48:36;;;;;;;96.70;38.20;;;4.20;99.90;;;;;;5068900;28;20104;-68
2022/12/01 00:51:02;;;;;;;84.43;35.05;;;4.20;99.90;;;;;;5055252;28;20068;-69
2022/12/01 00:53:28;;;;;;;89.10;35.47;;;4.20;99.90;;;;;;5061087;28;20028;-69
2022/12/01 00:55:54;;;;;;;90.50;36.88;;;4.20;99.90;;;;;;5049864;28;20034;-69
2022/12/01 00:58:20;;;;;;;94.60;37.17;;;4.20;99.90;;;;;;5063513;28;20024;-69
2022/12/01 01:00:45;;;;;;;91.55;37.22;;;4.20;99.90;;;;;;5053444;28;20020;-69
2022/12/01 01:03:11;;;;;;;93.57;36.85;;;4.20;99.90;;;;;;5065611;28;20369;-69
2022/12/01 01:05:39;;;;;;;90.65;36.20;;;4.20;99.90;;;;;;5062020;28;20051;-69
2022/12/01 01:08:09;;;;;;;97.13;37.83;;;4.20;99.90;;;;;;5062895;28;20111;-69
2022/12/01 01:10:43;;;;;;;97.50;38.10;;;4.20;99.90;;;;;;5068965;28;20115;-69
2022/12/01 01:13:08;;;;;;;90.82;37.45;;;4.20;99.90;;;;;;5049527;28;20044;-69
2022/12/01 01:15:34;;;;;;;104.00;38.53;;;4.20;99.90;;;;;;5067826;28;20017;-69
2022/12/01 01:18:00;;;;;;;103.20;38.63;;;4.20;99.90;;;;;;5061395;28;20103;-69
2022/12/01 01:20:26;;;;;;;105.40;39.17;;;4.20;99.90;;;;;;5051105;28;20105;-69
2022/12/01 01:22:51;;;;;;;106.85;39.15;;;4.20;99.90;;;;;;5059675;28;20583;-69
2022/12/01 01:25:17;;;;;;;107.80;40.35;;;4.20;99.90;;;;;;5056611;28;20032;-70
2022/12/01 01:27:42;;;;;;;100.95;38.28;;;4.20;99.90;;;;;;5069185;28;20124;-70
2022/12/01 01:30:08;;;;;;;97.85;39.15;;;4.20;99.90;;;;;;5069095;28;20021;-69
2022/12/01 01:32:34;;;;;;;107.18;40.13;;;4.20;99.90;;;;;;5060880;28;20020;-69
2022/12/01 01:35:00;;;;;;;115.57;41.88;;;4.20;99.90;;;;;;5061647;28;20366;-69
2022/12/01 01:37:25;;;;;;;115.90;41.15;;;4.30;99.90;;;;;;5068514;28;20106;-69
2022/12/01 01:39:51;;;;;;;117.78;41.67;;;4.30;99.90;;;;;;5067746;28;20028;-69
2022/12/01 01:42:19;;;;;;;122.53;43.00;;;4.30;99.90;;;;;;5064802;28;20028;-69
2022/12/01 01:44:51;;;;;;;133.73;44.70;;;4.40;99.90;;;;;;5057059;28;20008;-69
2022/12/01 01:47:31;;;;;;;130.60;43.58;;;4.40;99.90;;;;;;5067573;28;20056;-69
2022/12/01 01:50:04;;;;;;;136.43;44.63;;;4.40;99.90;;;;;;5049547;28;20029;-69
2022/12/01 01:52:31;;;;;;;133.38;43.42;;;4.50;99.90;;;;;;5077076;28;20041;-69
2022/12/01 01:54:57;;;;;;;127.18;43.20;;;4.50;99.90;;;;;;5068067;28;20077;-69
2022/12/01 01:57:27;;;;;;;126.13;45.13;;;4.50;99.90;;;;;;5069483;28;20032;-69
2022/12/01 02:00:19;;;;;;;133.38;44.58;;;4.60;99.90;;;;;;5070481;28;20029;-69
2022/12/01 02:02:47;;;;;;;130.27;43.97;;;4.60;99.90;;;;;;5064886;28;20400;-69
2022/12/01 02:05:33;;;;;;;125.35;42.38;;;4.60;99.90;;;;;;5071123;28;20029;-69
2022/12/01 02:08:00;;;;;;;130.80;43.88;;;4.60;99.90;;;;;;5072195;28;20309;-69
2022/12/01 02:10:37;;;;;;;133.77;44.38;;;4.70;99.90;;;;;;5057452;28;20032;-70
2022/12/01 02:13:06;;;;;;;135.82;44.55;;;4.70;99.90;;;;;;5072968;28;20025;-70
2022/12/01 02:15:56;;;;;;;124.70;43.50;;;4.70;99.90;;;;;;5072622;28;20472;-70
2022/12/01 02:18:24;;;;;;;133.27;44.47;;;4.70;99.90;;;;;;5071982;28;20495;-71
2022/12/01 02:20:58;;;;;;;114.05;42.35;;;4.70;99.90;;;;;;5072581;28;20124;-70
2022/12/01 02:23:33;;;;;;;124.40;44.15;;;4.70;99.90;;;;;;5071651;28;20381;-70
2022/12/01 02:26:34;;;;;;;127.38;43.10;;;4.70;99.90;;;;;;5067132;28;20067;-70
2022/12/01 02:29:21;;;;;;;119.03;42.05;;;4.60;99.90;;;;;;5068564;28;20495;-70
2022/12/01 02:31:58;;;;;;;118.55;42.28;;;4.60;99.90;;;;;;5069367;28;20432;-68
2022/12/01 02:34:42;;;;;;;113.38;40.85;;;4.60;99.90;;;;;;5059326;28;20028;-69
2022/12/01 02:37:17;;;;;;;109.47;41.75;;;4.60;99.90;;;;;;5057136;28;20035;-69
2022/12/01 02:40:02;;;;;;;105.57;40.00;;;4.60;99.90;;;;;;5072263;28;20693;-71
2022/12/01 02:42:48;;;;;;;116.05;40.97;;;4.60;99.90;;;;;;5067980;28;20489;-69
2022/12/01 02:45:30;;;;;;;107.80;41.55;;;4.60;99.90;;;;;;5070955;28;20019;-69
2022/12/01 02:48:00;;;;;;;107.68;39.10;;;4.50;99.90;;;;;;5063277;28;20052;-70
2022/12/01 02:50:29;;;;;;;104.72;39.17;;;4.50;99.90;;;;;;5065782;28;20033;-70
2022/12/01 02:52:55;;;;;;;113.43;41.33;;;4.40;99.90;;;;;;5068611;28;20047;-70
2022/12/01 02:55:20;;;;;;;110.57;40.85;;;4.40;99.90;;;;;;5065631;28;20033;-71
2022/12/01 02:57:46;;;;;;;107.93;39.72;;;4.40;99.90;;;;;;5068812;28;20362;-70
2022/12/01 03:00:13;;;;;;;113.45;41.35;;;4.30;99.90;;;;;;5072373;28;20427;-70
2022/12/01 03:03:27;;;;;;;118.18;42.92;;;4.30;99.90;;;;;;5071540;28;20029;-70
2022/12/01 03:06:07;;;;;;;118.93;40.70;;;4.30;99.90;;;;;;5021884;28;20103;-70
2022/12/01 03:09:01;;;;;;;116.70;41.63;;;4.30;99.90;;;;;;5014935;28;20025;-71
2022/12/01 03:12:02;;;;;;;109.32;40.63;;;4.30;99.90;;;;;;5028177;28;20120;-70
2022/12/01 03:14:33;;;;;;;115.30;41.22;;;4.30;99.90;;;;;;5028461;28;20498;-70
2022/12/01 03:17:04;;;;;;;115.72;40.30;;;4.30;99.90;;;;;;5023975;28;20036;-70
2022/12/01 03:20:12;;;;;;;110.30;40.17;;;4.30;99.90;;;;;;5019760;28;20053;-70
2022/12/01 03:22:48;;;;;;;103.63;38.72;;;4.30;99.90;;;;;;5002026;28;20044;-70
2022/12/01 03:25:15;;;;;;;112.65;39.88;;;4.30;99.90;;;;;;5023171;28;20036;-70
2022/12/01 03:27:43;;;;;;;116.63;42.90;;;4.30;99.90;;;;;;5016189;28;20040;-70
2022/12/01 03:30:10;;;;;;;113.40;40.72;;;4.30;99.90;;;;;;5027489;28;20266;-70
2022/12/01 03:32:50;;;;;;;103.97;39.03;;;4.30;99.90;;;;;;5027837;28;20417;-70
2022/12/01 03:35:49;;;;;;;109.97;40.58;;;4.20;99.90;;;;;;5015799;28;20081;-70
2022/12/01 03:38:22;;;;;;;107.95;39.05;;;4.20;99.90;;;;;;5015750;28;20162;-69
2022/12/01 03:40:50;;;;;;;101.22;37.95;;;4.20;99.90;;;;;;5031486;28;20094;-70
2022/12/01 03:43:22;;;;;;;94.65;37.17;;;4.10;99.90;;;;;;5066868;28;20021;-70
2022/12/01 03:45:57;;;;;;;103.25;38.45;;;4.10;99.90;;;;;;5061954;28;20045;-70
2022/12/01 03:48:24;;;;;;;101.55;38.70;;;4.10;99.90;;;;;;5069228;28;20052;-70
2022/12/01 03:50:59;;;;;;;95.25;36.42;;;4.00;99.90;;;;;;5062956;28;20110;-70
2022/12/01 03:53:31;;;;;;;101.78;37.90;;;4.00;99.90;;;;;;5057009;28;20039;-70
2022/12/01 03:56:01;;;;;;;97.43;37.92;;;4.00;99.90;;;;;;5070636;28;20480;-70
2022/12/01 03:58:35;;;;;;;102.65;39.00;;;3.90;99.90;;;;;;5069720;28;20043;-70
2022/12/01 04:01:02;;;;;;;101.85;39.05;;;3.90;99.90;;;;;;5069459;28;20028;-69
2022/12/01 04:03:28;;;;;;;106.03;39.53;;;3.80;99.90;;;;;;5066852;28;20446;-69
2022/12/01 04:05:54;;;;;;;110.85;39.65;;;3.80;99.90;;;;;;5069440;28;20021;-69
2022/12/01 04:08:20;;;;;;;103.80;37.63;;;3.80;99.90;;;;;;5070816;28;20017;-70
2022/12/01 04:10:46;;;;;;;110.47;38.72;;;3.80;99.90;;;;;;5070561;28;20028;-70
2022/12/01 04:13:21;;;;;;;101.80;38.58;;;3.80;99.90;;;;;;5070359;28;20023;-70
2022/12/01 04:15:46;;;;;;;;;;;3.80;99.90;;;;;;5069742;28;20165;-69
2022/12/01 04:18:12;;;;;;;103.72;37.83;;;3.80;99.90;;;;;;5070029;28;20003;-70
2022/12/01 04:20:38;;;;;;;108.22;39.28;;;3.80;99.90;;;;;;5064457;28;20035;-70
2022/12/01 04:23:03;;;;;;;104.15;39.50;;;3.80;99.90;;;;;;5066372;28;20074;-70
2022/12/01 04:25:29;;;;;;;115.10;41.65;;;3.80;99.90;;;;;;5057770;28;20024;-70
2022/12/01 04:27:54;;;;;;;109.78;39.47;;;3.80;99.90;;;;;;5063506;28;20032;-70
2022/12/01 04:30:20;;;;;;;106.47;39.17;;;3.70;99.90;;;;;;5069398;28;20461;-70
2022/12/01 04:32:45;;;;;;;107.45;39.83;;;3.70;99.90;;;;;;5062984;28;20473;-70
2022/12/01 04:35:11;;;;;;;119.38;39.80;;;3.70;99.90;;;;;;5069058;28;20429;-69
2022/12/01 04:37:38;;;;;;;116.57;40.72;;;3.70;99.90;;;;;;5060627;28;20014;-69
2022/12/01 04:40:04;;;;;;;115.28;41.83;;;3.70;99.90;;;;;;5065204;28;20496;-69
2022/12/01 04:42:30;;;;;;;116.80;41.97;;;3.70;99.90;;;;;;5065853;28;20042;-70
2022/12/01 04:44:56;;;;;;;120.40;41.75;;;3.70;99.90;;;;;;5059747;28;20891;-69
2022/12/01 04:47:21;;;;;;;128.30;43.33;;;3.70;99.90;;;;;;5059992;28;20040;-70
2022/12/01 04:49:47;;;;;;;119.30;41.00;;;3.70;99.90;;;;;;5070073;28;20036;-70
2022/12/01 04:52:13;;;;;;;124.57;43.72;;;3.70;99.90;;;;;;5069286;28;20040;-70
2022/12/01 04:54:38;;;;;;;116.15;41.40;;;3.70;99.90;;;;;;5070051;28;20021;-70
2022/12/01 04:57:04;;;;;;;120.00;41.83;;;3.70;99.90;;;;;;5068727;28;20020;-70
2022/12/01 04:59:29;;;;;;;113.22;40.65;;;3.70;99.90;;;;;;5069726;28;20024;-70
2022/12/01 05:01:55;;;;;;;114.57;41.22;;;3.70;99.90;;;;;;5069193;28;20484;-70
2022/12/01 05:04:21;;;;;;;109.55;39.72;;;3.70;99.90;;;;;;5069857;28;20024;-70
2022/12/01 05:06:46;;;;;;;114.63;40.38;;;3.70;99.90;;;;;;5069674;28;20464;-70
2022/12/01 05:09:13;;;;;;;108.47;40.10;;;3.60;99.90;;;;;;5070295;28;20453;-70
2022/12/01 05:11:39;;;;;;;117.40;40.38;;;3.60;99.90;;;;;;5069525;28;20366;-71
2022/12/01 05:14:05;;;;;;;111.75;40.90;;;3.60;99.90;;;;;;5069815;28;20028;-70
2022/12/01 05:16:32;;;;;;;110.50;39.60;;;3.60;99.90;;;;;;5069140;28;20540;-70
2022/12/01 05:21:46;;;;;;;97.13;37.00;;;3.60;99.90;;;;;;5055848;28;20117;-70
2022/12/01 05:24:13;;;;;;;110.20;38.15;;;3.60;99.90;;;;;;5059584;28;20017;-71
2022/12/01 05:26:40;;;;;;;100.97;38.28;;;3.60;99.90;;;;;;5065329;28;20028;-70
2022/12/01 05:29:07;;;;;;;102.90;38.70;;;3.60;99.90;;;;;;5069662;28;20060;-70
2022/12/01 05:31:33;;;;;;;101.72;38.13;;;3.60;99.90;;;;;;5068811;28;20033;-72
2022/12/01 05:33:59;;;;;;;97.60;37.53;;;3.60;99.90;;;;;;5063746;28;20032;-72
2022/12/01 05:36:25;;;;;;;94.97;35.97;;;3.60;99.90;;;;;;5068890;28;20013;-71
2022/12/01 05:38:51;;;;;;;97.35;36.75;;;3.70;99.90;;;;;;5068730;28;20027;-71
2022/12/01 05:41:17;;;;;;;98.65;37.83;;;3.70;99.90;;;;;;5056843;28;20104;-72
2022/12/01 05:43:42;;;;;;;98.47;37.28;;;3.70;99.90;;;;;;5073177;28;20021;-71
2022/12/01 05:46:08;;;;;;;110.90;38.90;;;3.70;99.90;;;;;;5073706;28;20024;-71
2022/12/01 05:48:33;;;;;;;107.03;37.78;;;3.70;99.90;;;;;;5069851;28;20044;-71
2022/12/01 05:50:59;;;;;;;100.72;37.33;;;3.70;99.90;;;;;;5057411;28;20683;-71
2022/12/01 05:53:24;;;;;;;103.28;38.00;;;3.70;99.90;;;;;;5059277;28;20020;-71
2022/12/01 05:55:52;;;;;;;106.43;38.33;;;3.60;99.90;;;;;;5063442;28;20099;-71
2022/12/01 05:58:17;;;;;;;105.00;38.65;;;3.60;99.90;;;;;;5060945;28;20024;-71
2022/12/01 06:00:43;;;;;;;110.53;38.38;;;3.70;99.90;;;;;;5058994;28;20419;-71
2022/12/01 06:03:09;;;;;;;107.80;39.03;;;3.70;99.90;;;;;;5070810;28;20047;-71
2022/12/01 06:05:34;;;;;;;109.63;39.50;;;3.70;99.90;;;;;;5072516;28;20029;-71
2022/12/01 06:08:00;;;;;;;113.88;39.95;;;3.60;99.90;;;;;;5062289;28;20432;-71
2022/12/01 06:10:27;;;;;;;111.30;39.05;;;3.60;99.90;;;;;;5066130;28;20047;-71
2022/12/01 06:12:52;;;;;;;117.97;39.50;;;3.70;99.90;;;;;;5066087;28;20111;-71
2022/12/01 06:15:18;;;;;;;121.25;41.08;;;3.70;99.90;;;;;;5056159;28;20456;-71
2022/12/01 06:17:45;;;;;;;112.45;39.20;;;3.70;99.90;;;;;;5067275;28;20024;-71
2022/12/01 06:20:11;;;;;;;113.20;39.50;;;3.70;99.90;;;;;;5067481;28;20036;-70
2022/12/01 06:22:37;;;;;;;111.00;39.75;;;3.70;99.90;;;;;;5059534;28;20361;-70
2022/12/01 06:25:03;;;;;;;112.35;38.95;;;3.70;99.90;;;;;;5057126;28;20043;-70
2022/12/01 06:27:29;;;;;;;115.85;39.38;;;3.70;99.90;;;;;;5060584;28;20477;-70
2022/12/01 06:29:54;;;;;;;102.75;37.65;;;3.70;99.90;;;;;;5067648;28;20020;-69
2022/12/01 06:32:20;;;;;;;111.22;37.45;;;3.70;99.90;;;;;;5061745;28;20040;-69
2022/12/01 06:34:46;;;;;;;112.68;40.00;;;3.70;99.90;;;;;;5065173;28;20036;-70
2022/12/01 06:37:14;;;;;;;116.40;39.90;;;3.70;99.90;;;;;;5059062;28;20056;-70
2022/12/01 06:39:40;;;;;;;125.22;40.88;;;3.80;99.90;;;;;;5055553;28;20051;-73
2022/12/01 06:42:05;;;;;;;115.55;40.13;;;3.80;99.90;;;;;;5058843;28;20513;-70
2022/12/01 06:44:31;;;;;;;126.50;43.20;;;3.80;99.90;;;;;;5060694;28;20112;-70
2022/12/01 06:46:57;;;;;;;125.72;41.40;;;3.80;99.90;;;;;;5054807;28;20104;-71
2022/12/01 06:49:25;;;;;;;123.60;42.50;;;3.80;99.90;;;;;;5073569;28;20012;-70
2022/12/01 06:51:51;;;;;;;123.63;41.28;;;3.90;99.90;;;;;;5070706;28;20032;-70
2022/12/01 06:54:16;;;;;;;126.40;42.35;;;3.90;99.90;;;;;;5063356;28;20032;-70
2022/12/01 06:56:43;;;;;;;138.98;44.67;;;3.90;99.90;;;;;;5059495;28;20079;-70
2022/12/01 06:59:09;;;;;;;129.45;41.95;;;3.90;99.90;;;;;;5066747;28;20407;-70
2022/12/01 07:01:34;;;;;;;126.80;41.80;;;3.90;99.90;;;;;;5068977;28;20024;-71
2022/12/01 07:04:00;;;;;;;113.47;40.28;;;4.00;99.90;;;;;;5071154;28;20577;-71
2022/12/01 07:06:28;;;;;;;128.15;44.20;;;4.00;99.90;;;;;;5056827;28;20021;-71
2022/12/01 07:08:54;;;;;;;132.20;42.90;;;4.00;99.90;;;;;;5064573;28;20497;-70
2022/12/01 07:11:20;;;;;;;135.15;43.13;;;4.00;99.90;;;;;;5051932;28;20115;-70
2022/12/01 07:13:45;;;;;;;127.13;41.67;;;4.00;99.90;;;;;;5057078;28;20073;-71
2022/12/01 07:16:11;;;;;;;125.80;42.35;;;4.00;99.90;;;;;;5052682;28;20016;-69
2022/12/01 07:18:39;;;;;;;143.65;43.08;;;4.00;99.90;;;;;;5057684;28;20028;-69
2022/12/01 07:21:08;;;;;;;133.00;43.88;;;4.00;99.90;;;;;;5055232;28;20028;-69
2022/12/01 07:23:35;;;;;;;145.85;44.45;;;4.00;99.90;;;;;;5060123;28;20036;-70
2022/12/01 07:26:14;;;;;;;135.13;43.33;;;4.00;99.90;;;;;;5058345;28;20021;-69
2022/12/01 07:28:40;;;;;;;132.70;43.65;;;4.10;99.90;;;;;;5052470;28;20021;-70
2022/12/01 07:31:10;;;;;;;133.77;43.20;;;4.10;99.90;;;;;;5061633;28;20112;-69
2022/12/01 07:33:36;;;;;;;137.30;44.70;;;4.10;99.90;;;;;;5060521;28;20079;-70
2022/12/01 07:36:02;;;;;;;142.82;45.40;;;4.10;99.90;;;;;;5054896;28;20494;-69
2022/12/01 07:38:29;;;;;;;133.52;44.40;;;4.10;99.90;;;;;;5063403;28;20030;-69
2022/12/01 07:40:59;;;;;;;139.77;46.28;;;4.20;99.90;;;;;;5052773;28;20483;-70
2022/12/01 07:43:25;;;;;;;144.18;45.33;;;4.20;99.90;;;;;;5062032;28;20077;-70
2022/12/01 07:45:50;;;;;;;146.35;45.13;;;4.20;99.90;;;;;;5048735;28;20037;-70
2022/12/01 07:48:16;;;;;;;145.38;43.67;;;4.20;99.90;;;;;;5057779;28;20053;-70
2022/12/01 07:50:42;;;;;;;142.05;46.38;;;4.20;99.90;;;;;;5051746;28;20398;-70
2022/12/01 07:53:08;;;;;;;148.80;46.00;;;4.20;99.90;;;;;;5056204;28;20043;-70
2022/12/01 07:55:34;;;;;;;148.20;46.95;;;4.20;99.90;;;;;;5054483;28;20079;-70
2022/12/01 07:58:00;;;;;;;146.15;46.25;;;4.30;99.90;;;;;;5052142;28;20052;-70
2022/12/01 08:00:26;;;;;;;142.95;46.00;;;4.30;99.90;;;;;;5052369;28;20021;-70
2022/12/01 08:02:51;;;;;;;141.43;44.45;;;4.30;99.90;;;;;;5053351;28;20025;-69
2022/12/01 08:05:17;;;;;;;157.30;47.85;;;4.40;99.90;;;;;;5049640;28;20025;-70
2022/12/01 08:07:42;;;;;;;152.25;47.80;;;4.40;99.90;;;;;;5054746;28;20013;-70
2022/12/01 08:10:08;;;;;;;149.07;46.20;;;4.50;99.90;;;;;;5055694;28;20099;-70
2022/12/01 08:12:34;;;;;;;151.43;45.75;;;4.50;99.90;;;;;;5060115;28;20025;-69
2022/12/01 08:14:59;;;;;;;147.88;47.78;;;4.50;99.90;;;;;;5067254;28;20433;-70
2022/12/01 08:17:25;;;;;;;153.43;46.28;;;4.50;99.90;;;;;;5063847;28;20021;-70
2022/12/01 08:19:50;;;;;;;147.35;46.58;;;4.60;99.90;;;;;;5066873;28;20024;-70
2022/12/01 08:22:16;;;;;;;171.82;49.72;;;4.60;99.90;;;;;;5057504;28;20386;-69
2022/12/01 08:24:42;;;;;;;159.55;48.78;;;4.70;99.90;;;;;;5057594;28;20025;-69
2022/12/01 08:27:07;;;;;;;153.00;47.63;;;4.70;99.90;;;;;;5059377;28;20021;-69
2022/12/01 08:29:34;;;;;;;158.45;46.63;;;4.70;99.90;;;;;;5061160;28;20101;-70
2022/12/01 08:32:00;;;;;;;162.07;48.70;;;4.80;99.90;;;;;;5055229;28;20056;-69
2022/12/01 08:34:26;;;;;;;160.70;48.33;;;4.90;99.90;;;;;;5059267;28;20485;-69
2022/12/01 08:36:52;;;;;;;156.52;48.60;;;4.90;99.90;;;;;;5055547;28;20039;-69
2022/12/01 08:39:17;;;;;;;158.75;48.67;;;5.00;99.90;;;;;;5051495;28;20013;-70
2022/12/01 08:41:43;;;;;;;157.45;48.47;;;5.00;99.90;;;;;;5058098;28;20088;-70
2022/12/01 08:44:09;;;;;;;159.30;49.03;;;5.00;99.90;;;;;;5050615;28;20172;-69
2022/12/01 08:46:35;;;;;;;150.00;48.05;;;5.10;99.90;;;;;;5065124;28;20393;-70
2022/12/01 08:49:03;;;;;;;159.00;49.35;;;5.10;99.90;;;;;;5064974;28;20463;-70
2022/12/01 08:51:29;;;;;;;160.30;48.78;;;5.10;99.90;;;;;;5066775;28;20110;-69
2022/12/01 08:53:56;;;;;;;153.25;48.67;;;5.20;99.90;;;;;;5059283;28;20489;-69
2022/12/01 08:56:37;;;;;;;142.15;47.60;;;5.20;99.90;;;;;;5057534;28;20020;-69
2022/12/01 08:59:03;;;;;;;146.80;48.38;;;5.30;99.90;;;;;;5052504;28;20120;-69
2022/12/01 09:01:29;;;;;;;150.95;47.15;;;5.30;99.90;;;;;;5056479;28;20036;-69
2022/12/01 09:04:07;;;;;;;144.73;47.03;;;5.40;99.90;;;;;;5055797;28;20151;-70
2022/12/01 09:06:43;;;;;;;150.10;47.63;;;5.40;99.90;;;;;;5057022;28;20032;-70
2022/12/01 09:09:13;;;;;;;150.18;48.03;;;5.50;99.90;;;;;;5062470;28;20024;-70
2022/12/01 09:11:39;;;;;;;148.65;49.42;;;5.50;99.90;;;;;;5062435;28;20029;-70
2022/12/01 09:14:05;;;;;;;151.70;48.20;;;5.60;99.90;;;;;;5073937;28;20429;-70
2022/12/01 09:16:31;;;;;;;158.18;50.25;;;5.70;99.90;;;;;;5073747;28;20016;-70
2022/12/01 09:18:57;;;;;;;152.07;48.95;;;5.70;99.90;;;;;;5073222;28;20028;-70
2022/12/01 09:21:25;;;;;;;142.75;48.15;;;5.70;99.90;;;;;;5072811;28;20104;-70
2022/12/01 09:23:51;;;;;;;142.63;48.42;;;5.80;99.90;;;;;;5072678;28;20506;-71
2022/12/01 09:26:18;;;;;;;146.85;49.25;;;5.80;99.90;;;;;;5073132;28;20083;-70
2022/12/01 09:28:44;;;;;;;146.73;48.45;;;5.90;99.90;;;;;;5063644;28;20028;-70
2022/12/01 09:31:11;;;;;;;145.18;47.92;;;5.90;99.90;;;;;;5068379;28;20060;-70
2022/12/01 09:33:38;;;;;;;145.15;48.22;;;6.00;99.90;;;;;;5060903;28;20378;-70
2022/12/01 09:36:05;;;;;;;140.73;47.58;;;6.00;99.90;;;;;;5060803;28;20060;-70
2022/12/01 09:38:32;;;;;;;142.40;49.55;;;6.10;99.90;;;;;;5065562;28;20044;-71
2022/12/01 09:41:07;;;;;;;143.65;48.03;;;6.10;99.90;;;;;;5055336;28;20048;-70
2022/12/01 09:43:44;;;;;;;138.30;48.60;;;6.10;99.90;;;;;;5065302;28;20404;-70
2022/12/01 09:46:17;;;;;;;145.13;47.53;;;6.20;99.90;;;;;;5061895;28;20682;-70
2022/12/01 09:48:46;;;;;;;144.48;48.50;;;6.30;99.90;;;;;;5062206;28;20496;-70
2022/12/01 09:51:20;;;;;;;142.77;49.05;;;6.30;99.90;;;;;;5057779;28;20029;-71
2022/12/01 09:53:49;;;;;;;145.30;48.30;;;6.40;99.90;;;;;;5067436;28;20059;-70
2022/12/01 09:56:21;;;;;;;144.35;48.63;;;6.50;99.90;;;;;;5061082;28;20082;-71
2022/12/01 09:58:51;;;;;;;139.13;47.95;;;6.60;99.90;;;;;;5051112;28;20112;-71
2022/12/01 10:01:19;;;;;;;141.50;48.50;;;6.60;99.90;;;;;;5068638;28;20782;-71
2022/12/01 10:03:49;;;;;;;134.15;46.65;;;6.70;99.90;;;;;;5062321;28;20416;-71
2022/12/01 10:06:19;;;;;;;136.23;46.22;;;6.70;99.90;;;;;;5059767;28;20122;-71
2022/12/01 10:09:11;;;;;;;136.85;47.00;;;6.70;99.90;;;;;;5055156;28;20457;-71
2022/12/01 10:11:41;;;;;;;128.98;46.65;;;6.70;99.90;;;;;;5050988;28;20544;-71
2022/12/01 10:14:13;;;;;;;119.28;45.13;;;6.70;99.90;;;;;;5055074;28;20029;-71
2022/12/01 10:16:47;;;;;;;125.72;45.30;;;6.70;99.90;;;;;;5055096;28;20078;-71
2022/12/01 10:19:31;;;;;;;122.10;44.60;;;6.80;99.90;;;;;;5071599;28;20039;-70
2022/12/01 10:22:06;;;;;;;119.00;44.85;;;6.80;99.90;;;;;;5070986;28;20016;-70
2022/12/01 10:25:02;;;;;;;115.07;43.60;;;6.90;99.90;;;;;;5070871;28;20090;-70
2022/12/01 10:27:46;;;;;;;123.90;45.00;;;6.90;99.90;;;;;;5072361;28;20346;-71
2022/12/01 10:30:17;;;;;;;110.97;43.80;;;6.90;99.90;;;;;;5070766;28;20024;-71
2022/12/01 10:33:01;;;;;;;122.63;45.63;;;6.90;99.90;;;;;;5072299;28;20024;-71
2022/12/01 10:35:34;;;;;;;115.60;44.28;;;7.00;99.90;;;;;;5071309;28;20093;-69
2022/12/01 10:38:02;;;;;;;110.28;42.88;;;7.00;99.90;;;;;;5072088;28;20384;-69
2022/12/01 10:40:33;;;;;;;108.97;43.15;;;7.00;99.90;;;;;;5067359;28;20025;-69
2022/12/01 10:42:58;;;;;;;107.75;43.13;;;7.10;99.90;;;;;;5062308;28;20024;-71
2022/12/01 10:45:39;;;;;;;111.22;44.92;;;7.20;99.90;;;;;;5072039;28;20033;-70
2022/12/01 10:48:23;;;;;;;112.05;43.55;;;7.20;99.90;;;;;;5056818;28;20056;-70
2022/12/01 10:50:54;;;;;;;108.57;43.95;;;7.20;99.90;;;;;;5072048;28;20021;-70
2022/12/01 10:53:22;;;;;;;106.45;43.80;;;7.20;99.90;;;;;;5067364;28;20052;-70
2022/12/01 10:56:03;;;;;;;100.13;40.22;;;7.20;99.90;;;;;;5069326;28;20383;-71
2022/12/01 10:58:31;;;;;;;98.35;40.03;;;7.30;99.90;;;;;;5072429;28;20496;-70
2022/12/01 11:01:03;;;;;;;90.60;39.25;;;7.30;99.90;;;;;;5070461;28;20033;-70
2022/12/01 11:03:31;;;;;;;95.22;40.78;;;7.30;99.90;;;;;;5063781;28;20029;-70
2022/12/01 11:06:00;;;;;;;90.95;38.75;;;7.30;99.90;;;;;;5064931;28;20024;-71
2022/12/01 11:08:38;;;;;;;93.07;39.47;;;7.40;99.90;;;;;;5070232;28;20081;-70
2022/12/01 11:11:05;;;;;;;93.38;39.10;;;7.40;99.90;;;;;;5071726;28;20048;-70
2022/12/01 11:13:34;;;;;;;88.50;38.28;;;7.40;99.90;;;;;;5070393;28;20024;-69
2022/12/01 11:16:03;;;;;;;88.88;38.13;;;7.50;99.90;;;;;;5070684;28;20024;-71
2022/12/01 11:18:28;;;;;;;92.18;39.33;;;7.50;99.90;;;;;;5067240;28;20229;-74
2022/12/01 11:21:13;;;;;;;89.47;37.80;;;7.50;99.90;;;;;;5061485;28;20034;-70
2022/12/01 11:23:48;;;;;;;87.18;37.92;;;7.60;99.90;;;;;;5073329;28;20024;-69
2022/12/01 11:26:26;;;;;;;84.13;36.10;;;7.60;99.90;;;;;;5078851;28;20107;-69
2022/12/01 11:29:00;;;;;;;86.57;37.45;;;7.60;99.90;;;;;;5070889;28;20021;-70
2022/12/01 11:31:40;;;;;;;85.68;36.97;;;7.60;99.90;;;;;;5059896;28;20029;-70
2022/12/01 11:34:17;;;;;;;86.05;38.15;;;7.70;99.90;;;;;;5054764;28;20017;-70
2022/12/01 11:36:47;;;;;;;89.93;37.42;;;7.70;99.90;;;;;;5062808;28;20036;-70
2022/12/01 11:39:27;;;;;;;82.78;37.10;;;7.80;99.90;;;;;;5070281;28;20025;-70
2022/12/01 11:42:21;;;;;;;85.38;37.08;;;7.80;99.90;;;;;;5056439;28;20028;-70
2022/12/01 11:44:54;;;;;;;86.28;37.15;;;7.80;99.90;;;;;;5067879;28;20032;-70
2022/12/01 11:47:22;;;;;;;87.55;37.22;;;7.80;99.90;;;;;;5070258;28;20048;-70
2022/12/01 11:49:56;;;;;;;86.18;36.47;;;7.80;99.90;;;;;;5070117;28;20547;-70
2022/12/01 11:52:29;;;;;;;82.57;36.55;;;7.80;99.90;;;;;;5069935;28;20031;-70
2022/12/01 11:55:15;;;;;;;82.45;35.83;;;7.90;99.90;;;;;;5064594;28;20035;-70
2022/12/01 11:57:47;;;;;;;79.75;35.35;;;7.90;99.90;;;;;;5054048;28;20036;-70
2022/12/01 12:00:17;;;;;;;78.22;35.90;;;7.90;99.90;;;;;;5070946;28;20047;-70
2022/12/01 12:03:04;;;;;;;77.90;35.13;;;8.00;99.90;;;;;;5067125;28;20024;-70
2022/12/01 12:05:57;;;;;;;76.28;35.85;;;8.00;99.90;;;;;;5072143;28;20445;-70
2022/12/01 12:08:40;;;;;;;79.55;34.30;;;8.00;99.90;;;;;;5071748;28;20024;-69
2022/12/01 12:11:42;;;;;;;71.78;32.03;;;8.00;99.90;;;;;;5066002;28;20029;-70
2022/12/01 12:14:16;;;;;;;72.68;31.58;;;8.10;99.90;;;;;;5064511;28;20066;-70
2022/12/01 12:17:29;;;;;;;66.75;31.52;;;8.10;99.90;;;;;;5061358;28;20021;-70
2022/12/01 12:20:37;;;;;;;71.32;32.40;;;8.10;99.90;;;;;;5032462;28;20557;-70
2022/12/01 12:23:03;;;;;;;69.95;31.15;;;8.10;99.90;;;;;;4970485;28;20045;-70
2022/12/01 12:25:52;;;;;;;66.70;30.20;;;8.10;99.90;;;;;;4972176;28;20114;-70
2022/12/01 12:29:03;;;;;;;62.53;29.67;;;8.20;99.90;;;;;;4956155;28;20030;-70
2022/12/01 12:31:38;;;;;;;57.75;26.17;;;8.20;99.90;;;;;;4930008;28;20039;-70
2022/12/01 12:34:24;;;;;;;61.78;27.60;;;8.20;99.90;;;;;;4974385;28;20068;-70
2022/12/01 12:37:08;;;;;;;57.92;26.83;;;8.20;99.90;;;;;;4978701;28;20042;-70
2022/12/01 12:39:52;;;;;;;58.13;27.23;;;8.20;99.90;;;;;;4971042;28;20058;-71
2022/12/01 12:42:29;;;;;;;57.20;26.90;;;8.20;99.90;;;;;;4968689;28;20050;-70
2022/12/01 12:45:05;;;;;;;62.30;27.40;;;8.20;99.90;;;;;;4965268;28;20041;-71
2022/12/01 12:47:46;;;;;;;51.63;25.25;;;8.20;99.90;;;;;;4980157;28;20066;-69
2022/12/01 12:50:42;;;;;;;54.38;25.30;;;8.20;99.90;;;;;;4999265;28;20524;-70
2022/12/01 12:53:23;;;;;;;56.30;26.05;;;8.30;99.90;;;;;;5025148;28;20084;-69
2022/12/01 12:55:52;;;;;;;55.88;24.60;;;8.20;99.90;;;;;;5020727;28;20140;-69